Time;durP1;ratioP1;P1;durP2;ratioP2;P2;SDS_P1;SDS_P2;PMS_P1;PMS_P2;Temp;Humidity;BMP_temperature;BMP_pressure;BME280_temperature;BME280_humidity;BME280_pressure;Samples;Min_cycle;Max_cycle;Signal;HPM_P1;HPM_P2
2022/01/07 00:02:20;;;;;;;25.23;9.97;;;;;;;0.85;59.53;100670.75;4960641;28;96714;-93
2022/01/07 00:04:45;;;;;;;21.27;10.10;;;;;;;0.72;59.67;100668.88;4940670;28;101255;-93
2022/01/07 00:07:11;;;;;;;22.73;10.20;;;;;;;0.76;59.78;100670.66;4976572;28;97966;-94
2022/01/07 00:09:37;;;;;;;22.87;9.60;;;;;;;0.77;59.33;100679.28;4957067;28;97375;-93
2022/01/07 00:12:06;;;;;;;24.43;9.10;;;;;;;0.81;59.28;100673.28;4977275;28;97451;-93
2022/01/07 00:14:32;;;;;;;22.37;7.57;;;;;;;0.84;59.57;100675.88;4949153;28;101363;-93
2022/01/07 00:16:57;;;;;;;17.37;7.70;;;;;;;0.86;58.75;100664.72;4959884;28;99839;-93
2022/01/07 00:19:23;;;;;;;22.33;8.80;;;;;;;0.87;58.88;100668.16;4979488;28;97117;-92
2022/01/07 00:21:49;;;;;;;20.83;8.30;;;;;;;0.86;59.09;100651.81;4941123;28;97375;-90
2022/01/07 00:24:14;;;;;;;18.40;7.80;;;;;;;0.92;58.50;100658.75;4994112;28;100071;-91
2022/01/07 00:26:40;;;;;;;21.17;7.67;;;;;;;0.88;58.35;100647.53;4960387;28;101486;-91
2022/01/07 00:29:05;;;;;;;19.47;8.13;;;;;;;0.85;58.68;100665.59;4959725;28;96784;-91
2022/01/07 00:31:31;;;;;;;23.20;7.93;;;;;;;0.89;58.38;100658.72;4961078;28;96814;-91
2022/01/07 00:33:56;;;;;;;18.00;6.50;;;;;;;0.97;58.36;100653.66;4958377;28;101415;-90
2022/01/07 00:36:22;;;;;;;18.80;7.43;;;;;;;0.95;57.74;100651.03;4956670;28;98374;-92
2022/01/07 00:38:48;;;;;;;24.33;11.23;;;;;;;0.79;58.12;100633.66;4960270;28;97162;-91
2022/01/07 00:41:13;;;;;;;19.57;7.93;;;;;;;0.94;57.50;100654.47;4961021;28;97010;-90
2022/01/07 00:43:39;;;;;;;16.10;6.57;;;;;;;0.98;57.55;100657.97;4951753;28;100097;-90
2022/01/07 00:46:04;;;;;;;17.43;6.23;;;;;;;0.95;57.07;100647.59;4967760;28;99785;-91
2022/01/07 00:48:30;;;;;;;15.90;6.47;;;;;;;1.04;57.16;100655.44;4986887;28;96699;-94
2022/01/07 00:50:55;;;;;;;18.33;6.17;;;;;;;0.85;56.56;100639.75;4959682;28;97126;-93
2022/01/07 00:53:21;;;;;;;20.17;7.47;;;;;;;0.82;56.67;100655.22;4960319;28;101583;-90
2022/01/07 00:55:47;;;;;;;14.73;6.20;;;;;;;0.63;56.53;100637.75;4976626;28;97348;-93
2022/01/07 00:58:13;;;;;;;18.90;7.40;;;;;;;0.85;56.25;100659.56;4940991;28;97256;-91
2022/01/07 01:00:38;;;;;;;22.73;7.00;;;;;;;0.62;56.32;100646.38;4956034;28;96853;-91
2022/01/07 01:03:04;;;;;;;23.77;7.23;;;;;;;0.83;55.40;100658.66;4977803;28;101603;-92
2022/01/07 01:05:30;;;;;;;18.37;6.63;;;;;;;0.71;54.85;100653.38;4958538;28;101203;-91
2022/01/07 01:07:55;;;;;;;21.47;7.10;;;;;;;0.82;54.70;100669.88;4959358;28;97081;-92
2022/01/07 01:10:24;;;;;;;16.07;6.67;;;;;;;0.66;54.53;100646.41;4990873;28;96928;-91
2022/01/07 01:12:50;;;;;;;19.43;7.27;;;;;;;0.64;55.52;100667.91;4959216;28;101929;-91
2022/01/07 01:15:21;;;;;;;16.37;6.90;;;;;;;0.59;55.86;100659.25;4959534;28;100994;-92
2022/01/07 01:17:48;;;;;;;22.63;7.43;;;;;;;0.47;56.15;100644.47;4944382;28;97205;-93
2022/01/07 01:20:13;;;;;;;17.23;6.73;;;;;;;0.50;56.65;100661.72;4962148;28;97131;-92
2022/01/07 01:22:40;;;;;;;19.40;7.43;;;;;;;0.24;56.97;100639.03;4959270;28;98472;-89
2022/01/07 01:25:07;;;;;;;20.83;6.80;;;;;;;0.34;56.86;100629.66;4970973;28;98451;-91
2022/01/07 01:27:33;;;;;;;14.60;6.40;;;;;;;0.34;56.69;100640.00;4957351;28;97313;-90
2022/01/07 01:30:01;;;;;;;14.40;5.40;;;;;;;0.12;57.06;100626.81;4956860;28;97231;-94
2022/01/07 01:32:26;;;;;;;13.67;5.93;;;;;;;0.27;57.44;100664.03;5002843;28;98522;-91
2022/01/07 01:34:52;;;;;;;15.03;5.77;;;;;;;0.36;56.92;100657.25;4951874;28;101117;-91
2022/01/07 01:37:17;;;;;;;14.37;5.83;;;;;;;0.45;56.02;100648.75;4959635;28;97064;-92
2022/01/07 01:39:43;;;;;;;13.90;5.17;;;;;;;0.28;56.70;100651.09;4935395;28;97080;-92
2022/01/07 01:42:09;;;;;;;12.50;5.33;;;;;;;0.31;56.61;100647.69;4957949;28;101140;-93
2022/01/07 01:44:34;;;;;;;20.23;5.13;;;;;;;0.21;56.46;100651.88;4959467;28;101745;-92
2022/01/07 01:47:00;;;;;;;16.70;5.77;;;;;;;0.14;56.70;100643.16;4975057;28;97195;-90
2022/01/07 01:49:25;;;;;;;13.20;5.20;;;;;;;0.28;55.79;100638.19;4959645;28;97209;-92
2022/01/07 01:51:51;;;;;;;14.83;5.60;;;;;;;0.34;55.18;100643.44;4955947;28;101719;-92
2022/01/07 01:54:17;;;;;;;16.27;6.27;;;;;;;0.37;55.14;100656.38;4958745;28;97869;-91
2022/01/07 01:56:42;;;;;;;16.93;6.40;;;;;;;0.27;55.31;100649.38;4968949;28;97949;-92
2022/01/07 01:59:09;;;;;;;14.73;5.87;;;;;;;-0.11;55.39;100607.56;4979467;28;96849;-93
2022/01/07 02:01:40;;;;;;;15.23;5.90;;;;;;;0.10;55.15;100649.16;4963823;28;100726;-91
2022/01/07 02:04:06;;;;;;;19.30;5.90;;;;;;;0.01;55.41;100646.44;4975374;28;98259;-92
2022/01/07 02:06:32;;;;;;;13.17;5.53;;;;;;;-0.32;55.12;100580.63;4956919;28;97149;-92
2022/01/07 02:08:57;;;;;;;15.83;5.03;;;;;;;-0.01;55.01;100641.25;4958625;28;97352;-91
2022/01/07 02:11:23;;;;;;;16.23;5.30;;;;;;;0.06;54.21;100634.47;4956204;28;101680;-91
2022/01/07 02:13:54;;;;;;;17.53;5.30;;;;;;;-0.08;54.83;100634.28;4939671;28;100687;-91
2022/01/07 02:16:24;;;;;;;15.55;5.85;;;;;;;0.24;53.52;100658.81;4990525;28;96839;-91
2022/01/07 02:18:49;;;;;;;15.70;5.80;;;;;;;0.07;53.92;100649.13;4964626;28;97136;-91
2022/01/07 02:21:15;;;;;;;14.97;5.47;;;;;;;0.03;54.83;100641.28;4970004;28;100213;-91
2022/01/07 02:23:41;;;;;;;15.93;5.40;;;;;;;0.07;53.86;100637.94;4961217;28;101422;-92
2022/01/07 02:26:07;;;;;;;14.97;5.30;;;;;;;0.14;54.06;100647.47;4959062;28;97259;-92
2022/01/07 02:28:34;;;;;;;16.83;6.13;;;;;;;-0.07;54.33;100620.53;4959007;28;97186;-92
2022/01/07 02:30:59;;;;;;;15.57;5.50;;;;;;;0.16;54.51;100645.78;4957170;28;100749;-91
2022/01/07 02:33:25;;;;;;;15.70;6.53;;;;;;;0.22;54.03;100646.72;4974994;28;97412;-91
2022/01/07 02:35:51;;;;;;;17.67;6.87;;;;;;;0.13;54.35;100628.53;4942177;28;96774;-92
2022/01/07 02:38:17;;;;;;;20.93;8.00;;;;;;;-0.05;54.76;100623.13;4959029;28;97076;-91
2022/01/07 02:40:43;;;;;;;15.17;5.67;;;;;;;-0.09;54.68;100629.97;4989568;28;98393;-92
2022/01/07 02:43:10;;;;;;;15.80;6.07;;;;;;;-0.07;55.12;100640.31;4958180;28;101194;-92
2022/01/07 02:45:35;;;;;;;18.37;6.27;;;;;;;-0.18;54.89;100621.22;4957650;28;97191;-92
2022/01/07 02:48:03;;;;;;;16.33;6.50;;;;;;;-0.11;55.03;100641.13;5016197;28;97311;-91
2022/01/07 02:50:33;;;;;;;22.30;9.57;;;;;;;-0.14;55.06;100631.63;4973459;28;100881;-92
2022/01/07 02:52:59;;;;;;;22.10;8.97;;;;;;;-0.08;55.10;100643.75;4977839;28;97106;-91
2022/01/07 02:55:26;;;;;;;21.00;7.97;;;;;;;-0.13;55.49;100642.81;4952742;28;96809;-92
2022/01/07 02:57:52;;;;;;;26.43;9.47;;;;;;;-0.28;55.58;100631.41;4962862;28;97817;-91
2022/01/07 03:00:19;;;;;;;18.10;7.17;;;;;;;-0.08;55.58;100647.19;4944980;28;99478;-92
2022/01/07 03:02:46;;;;;;;22.97;8.23;;;;;;;-0.07;55.80;100651.50;4978285;28;98300;-92
2022/01/07 03:05:12;;;;;;;15.70;6.23;;;;;;;-0.26;55.61;100623.72;4977639;28;97176;-91
2022/01/07 03:07:38;;;;;;;20.90;8.30;;;;;;;-0.10;55.49;100646.28;4959254;28;96993;-91
2022/01/07 03:10:05;;;;;;;21.27;6.93;;;;;;;-0.19;56.00;100629.81;4973726;28;97916;-91
2022/01/07 03:12:31;;;;;;;20.67;7.67;;;;;;;-0.32;56.15;100639.97;4974810;28;100036;-92
2022/01/07 03:14:56;;;;;;;22.00;8.43;;;;;;;-0.53;56.59;100626.72;4957715;28;99314;-92
2022/01/07 03:17:22;;;;;;;17.77;8.33;;;;;;;-0.53;57.02;100617.25;4970103;28;97203;-93
2022/01/07 03:19:47;;;;;;;19.77;8.33;;;;;;;-0.60;57.12;100607.69;4960133;28;100245;-92
2022/01/07 03:22:13;;;;;;;23.10;8.03;;;;;;;-0.37;56.92;100638.16;4978423;28;101033;-92
2022/01/07 03:24:40;;;;;;;15.70;7.03;;;;;;;-0.44;57.36;100636.31;4962391;28;97885;-93
2022/01/07 03:27:06;;;;;;;20.03;7.80;;;;;;;-0.58;57.30;100603.44;4974704;28;97128;-92
2022/01/07 03:29:33;;;;;;;22.53;8.53;;;;;;;-0.68;57.41;100594.66;4993490;28;101034;-91
2022/01/07 03:31:58;;;;;;;23.17;8.67;;;;;;;-0.42;57.82;100634.63;4944396;28;101677;-92
2022/01/07 03:34:24;;;;;;;20.57;8.13;;;;;;;-0.24;57.06;100640.91;4974356;28;96622;-91
2022/01/07 03:36:50;;;;;;;16.73;6.43;;;;;;;-0.35;57.50;100632.16;4977843;28;96989;-93
2022/01/07 03:39:15;;;;;;;17.63;7.20;;;;;;;-0.48;57.95;100623.34;4980575;28;98458;-93
2022/01/07 03:41:41;;;;;;;20.17;6.73;;;;;;;-0.80;58.08;100591.03;4975525;28;101230;-92
2022/01/07 03:44:06;;;;;;;19.73;7.37;;;;;;;-0.57;58.42;100623.22;4961597;28;96807;-93
2022/01/07 03:46:32;;;;;;;18.63;6.83;;;;;;;-0.72;58.33;100617.81;4984770;28;96954;-92
2022/01/07 03:48:57;;;;;;;15.83;5.77;;;;;;;-0.74;58.49;100628.09;4963639;28;99744;-93
2022/01/07 03:51:23;;;;;;;15.50;6.30;;;;;;;-0.75;58.94;100628.09;4976692;28;101197;-93
2022/01/07 03:53:48;;;;;;;18.37;7.63;;;;;;;-0.71;58.97;100609.22;4960930;28;96655;-92
2022/01/07 03:56:17;;;;;;;15.50;6.53;;;;;;;-1.17;59.55;100555.19;4958106;28;97116;-92
2022/01/07 03:58:44;;;;;;;20.37;7.53;;;;;;;-1.09;60.05;100555.34;4951321;28;101576;-91
2022/01/07 04:01:10;;;;;;;19.00;7.37;;;;;;;-1.08;59.96;100556.19;4960282;28;101445;-92
2022/01/07 04:03:36;;;;;;;14.37;6.70;;;;;;;-0.81;60.31;100618.53;4945016;28;96918;-91
2022/01/07 04:06:01;;;;;;;17.53;6.30;;;;;;;-1.06;61.00;100596.63;4961221;28;97167;-92
2022/01/07 04:08:27;;;;;;;16.23;6.77;;;;;;;-0.89;61.21;100627.84;4959269;28;100862;-91
2022/01/07 04:10:53;;;;;;;22.33;6.87;;;;;;;-0.78;61.04;100625.47;4970939;28;100082;-92
2022/01/07 04:13:18;;;;;;;16.93;6.37;;;;;;;-1.08;61.66;100580.25;4950670;28;96885;-92
2022/01/07 04:15:44;;;;;;;15.43;5.67;;;;;;;-0.80;61.19;100632.28;4958885;28;96629;-92
2022/01/07 04:18:09;;;;;;;18.80;6.27;;;;;;;-0.88;61.51;100628.72;4940056;28;101239;-92
2022/01/07 04:20:35;;;;;;;16.73;6.03;;;;;;;-0.96;61.94;100602.78;4974362;28;101409;-93
2022/01/07 04:23:03;;;;;;;17.47;6.57;;;;;;;-0.87;61.57;100615.84;4959954;28;96794;-93
2022/01/07 04:25:28;;;;;;;13.57;6.87;;;;;;;-0.82;61.74;100621.94;4967268;28;96813;-92
2022/01/07 04:27:59;;;;;;;13.93;5.80;;;;;;;-0.87;62.04;100626.16;4959960;28;101660;-92
2022/01/07 04:30:30;;;;;;;10.63;5.10;;;;;;;-0.81;61.92;100625.41;4952441;28;100006;-93
2022/01/07 04:32:56;;;;;;;14.85;5.88;;;;;;;-0.87;61.85;100622.69;4965397;28;97384;-93
2022/01/07 04:35:23;;;;;;;14.60;5.70;;;;;;;-0.99;62.67;100631.09;4970363;28;96912;-94
2022/01/07 04:37:49;;;;;;;19.47;5.93;;;;;;;-1.11;63.25;100625.72;4974976;28;101439;-94
2022/01/07 04:40:16;;;;;;;17.20;6.37;;;;;;;-1.18;63.17;100604.13;4989625;28;100036;-94
2022/01/07 04:42:42;;;;;;;16.27;6.80;;;;;;;-0.97;62.75;100619.97;4966715;28;97066;-93
2022/01/07 04:45:09;;;;;;;20.70;6.70;;;;;;;-0.96;62.82;100618.25;4959599;28;96857;-92
2022/01/07 04:47:36;;;;;;;15.10;6.13;;;;;;;-0.89;62.60;100627.84;4949416;28;101798;-93
2022/01/07 04:50:08;;;;;;;14.30;5.47;;;;;;;-0.87;62.72;100618.44;4966709;28;101656;-92
2022/01/07 04:52:33;;;;;;;16.05;6.13;;;;;;;-0.84;62.42;100622.75;4979531;28;97158;-93
2022/01/07 04:55:00;;;;;;;18.67;6.60;;;;;;;-0.93;62.98;100605.44;4946597;28;97023;-92
2022/01/07 04:57:25;;;;;;;14.23;6.33;;;;;;;-0.93;62.58;100597.72;4973964;28;98494;-93
2022/01/07 04:59:51;;;;;;;18.10;8.10;;;;;;;-1.20;62.72;100552.56;4969229;28;99948;-92
2022/01/07 05:02:19;;;;;;;20.70;7.73;;;;;;;-0.76;62.59;100597.97;4975680;28;97124;-93
2022/01/07 05:04:45;;;;;;;17.47;6.93;;;;;;;-0.69;62.34;100605.84;4964308;28;97122;-92
2022/01/07 05:07:11;;;;;;;17.67;7.03;;;;;;;-0.99;62.87;100558.94;4958151;28;98791;-92
2022/01/07 05:09:36;;;;;;;13.90;6.33;;;;;;;-0.70;62.71;100606.69;4976240;28;98218;-93
2022/01/07 05:12:03;;;;;;;19.87;8.37;;;;;;;-0.76;62.69;100601.41;4959640;28;97198;-91
2022/01/07 05:14:28;;;;;;;18.03;7.07;;;;;;;-0.74;62.53;100597.16;4959606;28;97683;-93
2022/01/07 05:16:54;;;;;;;16.37;6.97;;;;;;;-0.68;62.33;100571.47;4961660;28;100993;-93
2022/01/07 05:19:19;;;;;;;20.90;8.27;;;;;;;-0.65;62.79;100593.00;4975879;28;97727;-93
2022/01/07 05:21:45;;;;;;;20.50;9.07;;;;;;;-0.83;62.65;100578.97;4960142;28;97073;-91
2022/01/07 05:24:11;;;;;;;20.70;8.03;;;;;;;-0.71;62.94;100589.47;4960252;28;96904;-93
2022/01/07 05:26:36;;;;;;;18.77;7.70;;;;;;;-0.82;63.11;100574.66;4956917;28;99846;-93
2022/01/07 05:29:02;;;;;;;14.93;6.77;;;;;;;-1.02;63.37;100544.31;4959641;28;101710;-90
2022/01/07 05:31:28;;;;;;;14.20;7.23;;;;;;;-0.71;63.00;100581.72;4955602;28;97483;-92
2022/01/07 05:33:54;;;;;;;14.87;7.70;;;;;;;-0.73;62.88;100567.09;4958594;28;97247;-93
2022/01/07 05:36:21;;;;;;;17.67;7.20;;;;;;;-0.86;62.71;100535.09;4970798;28;98373;-93
2022/01/07 05:38:47;;;;;;;13.00;6.50;;;;;;;-0.64;62.72;100568.94;4953979;28;100110;-92
2022/01/07 05:41:12;;;;;;;14.33;6.07;;;;;;;-0.70;62.68;100565.44;4959923;28;97019;-93
2022/01/07 05:43:38;;;;;;;15.53;5.77;;;;;;;-0.96;63.17;100541.81;4945454;28;96850;-93
2022/01/07 05:46:04;;;;;;;12.77;5.90;;;;;;;-0.77;63.12;100560.16;4973004;28;101412;-92
2022/01/07 05:48:29;;;;;;;11.93;6.23;;;;;;;-0.88;63.69;100553.97;4992511;28;100994;-93
2022/01/07 05:50:55;;;;;;;13.60;5.67;;;;;;;-1.02;63.86;100553.72;4982933;28;96711;-92
2022/01/07 05:53:21;;;;;;;17.20;6.97;;;;;;;-0.91;63.66;100560.78;4950844;28;97308;-92
2022/01/07 05:55:47;;;;;;;15.60;5.97;;;;;;;-0.89;63.47;100560.81;4965191;28;101357;-92
2022/01/07 05:58:12;;;;;;;14.70;6.47;;;;;;;-1.09;64.15;100539.00;4961083;28;101526;-92
2022/01/07 06:00:38;;;;;;;12.73;6.40;;;;;;;-1.01;64.37;100547.75;4951747;28;96802;-92
2022/01/07 06:03:03;;;;;;;12.07;6.80;;;;;;;-1.03;64.16;100544.28;4972293;28;97327;-92
2022/01/07 06:05:29;;;;;;;15.47;6.60;;;;;;;-1.11;64.33;100536.41;4991378;28;101306;-92
2022/01/07 06:07:54;;;;;;;12.67;6.53;;;;;;;-1.12;64.75;100544.97;4963391;28;101344;-92
2022/01/07 06:10:20;;;;;;;11.90;6.03;;;;;;;-1.35;65.11;100523.13;4992709;28;96816;-93
2022/01/07 06:12:45;;;;;;;16.77;6.67;;;;;;;-1.14;65.06;100549.22;4950588;28;96938;-93
2022/01/07 06:15:12;;;;;;;10.80;5.20;;;;;;;-1.22;64.93;100530.19;4965796;28;100908;-94
2022/01/07 06:17:38;;;;;;;14.17;6.20;;;;;;;-1.15;65.16;100550.09;4942747;28;101523;-93
2022/01/07 06:20:06;;;;;;;12.90;6.10;;;;;;;-1.22;64.92;100559.44;4973323;28;97069;-93
2022/01/07 06:22:31;;;;;;;16.50;6.43;;;;;;;-1.23;65.02;100557.66;4952830;28;96969;-94
2022/01/07 06:24:57;;;;;;;19.13;7.03;;;;;;;-1.14;64.97;100570.69;4982722;28;101318;-92
2022/01/07 06:27:22;;;;;;;13.70;7.53;;;;;;;-1.11;64.89;100574.19;4960995;28;98297;-94
2022/01/07 06:29:48;;;;;;;20.40;8.10;;;;;;;-1.12;64.92;100567.31;4967305;28;96880;-93
2022/01/07 06:32:13;;;;;;;15.70;6.77;;;;;;;-1.09;65.51;100578.53;4984232;28;96931;-93
2022/01/07 06:34:39;;;;;;;16.47;7.27;;;;;;;-0.91;64.64;100572.81;4961192;28;101489;-93
2022/01/07 06:37:05;;;;;;;15.87;5.40;;;;;;;-1.06;64.47;100559.69;4961828;28;101409;-93
2022/01/07 06:39:32;;;;;;;17.23;6.00;;;;;;;-1.04;64.69;100560.59;4966572;28;96719;-93
2022/01/07 06:41:59;;;;;;;13.63;6.47;;;;;;;-1.33;64.88;100527.44;4949986;28;97448;-93
2022/01/07 06:44:26;;;;;;;22.30;6.47;;;;;;;-1.08;64.93;100571.66;4959014;28;100203;-93
2022/01/07 06:46:52;;;;;;;13.17;6.63;;;;;;;-0.88;64.63;100572.00;4970732;28;98208;-94
2022/01/07 06:49:18;;;;;;;14.33;5.90;;;;;;;-0.85;64.60;100572.03;4962210;28;97177;-94
2022/01/07 06:51:44;;;;;;;11.07;5.63;;;;;;;-1.18;64.72;100524.28;4962008;28;97014;-94
2022/01/07 06:54:11;;;;;;;13.43;6.07;;;;;;;-0.96;64.30;100558.97;4961604;28;100416;-93
2022/01/07 06:56:43;;;;;;;16.63;7.23;;;;;;;-0.88;64.51;100582.31;4961751;28;101235;-94
2022/01/07 06:59:12;;;;;;;13.00;6.27;;;;;;;-0.91;64.86;100576.25;4982224;28;97210;-94
2022/01/07 07:01:39;;;;;;;13.23;6.40;;;;;;;-1.10;64.66;100550.19;4945743;28;97208;-92
2022/01/07 07:04:04;;;;;;;14.40;6.33;;;;;;;-0.94;65.07;100568.47;4968150;28;99750;-93
2022/01/07 07:06:30;;;;;;;18.10;6.60;;;;;;;-1.10;65.44;100558.75;4948271;28;101085;-92
2022/01/07 07:08:55;;;;;;;15.50;7.67;;;;;;;-1.10;65.79;100587.09;4961219;28;97104;-93
2022/01/07 07:11:21;;;;;;;18.87;6.67;;;;;;;-1.06;65.49;100570.84;4976568;28;96695;-92
2022/01/07 07:13:46;;;;;;;16.83;7.13;;;;;;;-1.13;65.86;100569.03;4961501;28;100594;-93
2022/01/07 07:16:12;;;;;;;12.77;6.50;;;;;;;-1.07;65.82;100571.69;4972073;28;101292;-94
2022/01/07 07:18:37;;;;;;;16.07;6.57;;;;;;;-1.12;65.67;100565.59;4969460;28;96940;-92
2022/01/07 07:21:03;;;;;;;15.40;6.57;;;;;;;-1.29;65.72;100518.94;4975091;28;96637;-93
2022/01/07 07:23:29;;;;;;;15.33;6.20;;;;;;;-1.10;65.60;100556.19;4961932;28;101456;-92
2022/01/07 07:25:54;;;;;;;13.33;6.20;;;;;;;-0.98;65.44;100552.94;4941757;28;101008;-93
2022/01/07 07:28:20;;;;;;;16.23;6.13;;;;;;;-0.97;65.70;100552.97;4943502;28;97312;-94
2022/01/07 07:30:47;;;;;;;13.07;6.07;;;;;;;-1.00;65.56;100542.59;4945221;28;96988;-92
2022/01/07 07:38:33;;;;;;;13.77;6.70;;;;;;;-1.07;65.45;100509.84;4963986;28;96786;-94
2022/01/07 07:40:58;;;;;;;16.87;7.53;;;;;;;-0.87;65.23;100532.47;4977169;28;97257;-94
2022/01/07 07:43:24;;;;;;;13.27;5.67;;;;;;;-0.87;65.05;100530.81;4967740;28;97568;-94
2022/01/07 07:45:49;;;;;;;14.63;7.07;;;;;;;-0.86;64.99;100531.66;4955344;28;98440;-91
2022/01/07 07:48:15;;;;;;;17.93;7.10;;;;;;;-1.13;65.05;100468.53;4973082;28;96909;-94
2022/01/07 07:50:41;;;;;;;13.07;6.87;;;;;;;-0.66;65.16;100540.56;4956562;28;97426;-93
2022/01/07 07:53:06;;;;;;;17.43;7.27;;;;;;;-0.43;64.34;100538.31;4973256;28;102263;-93
2022/01/07 07:55:32;;;;;;;15.90;6.77;;;;;;;-0.40;64.11;100519.44;4971092;28;99655;-89
2022/01/07 07:57:58;;;;;;;19.93;6.33;;;;;;;-0.31;64.13;100520.44;4950494;28;97602;-91
2022/01/07 08:00:24;;;;;;;15.03;6.50;;;;;;;0.08;63.12;100534.66;4958339;28;96927;-92
2022/01/07 08:02:49;;;;;;;26.17;8.17;;;;;;;0.43;61.97;100541.94;4970508;28;101275;-93
2022/01/07 08:05:15;;;;;;;12.60;6.07;;;;;;;0.57;60.94;100511.09;4961414;28;100842;-92
2022/01/07 08:07:40;;;;;;;17.33;5.87;;;;;;;0.41;60.95;100484.28;4974414;28;96989;-92
2022/01/07 08:10:06;;;;;;;15.67;5.40;;;;;;;0.33;61.23;100502.25;5000840;28;97446;-80
2022/01/07 08:18:00;;;;;;;16.30;6.17;;;;;;;0.30;61.73;100524.59;4964766;28;96772;-89
2022/01/07 08:20:26;;;;;;;12.30;5.17;;;;;;;0.34;61.08;100534.97;4968625;28;96994;-81
2022/01/07 08:23:00;;;;;;;13.53;4.60;;;;;;;0.23;60.84;100513.31;4963319;28;97617;-82
2022/01/07 08:25:26;;;;;;;14.33;4.93;;;;;;;0.23;61.43;100523.66;4971765;28;101180;-78
2022/01/07 08:27:51;;;;;;;15.80;5.10;;;;;;;0.35;61.90;100534.13;4981872;28;97252;-79
2022/01/07 08:30:24;;;;;;;9.67;4.20;;;;;;;0.32;61.83;100530.63;4968278;28;97279;-80
2022/01/07 08:35:38;;;;;;;15.63;5.53;;;;;;;0.41;61.21;100530.75;4980225;28;101053;-82
2022/01/07 08:38:04;;;;;;;15.33;6.17;;;;;;;0.26;62.00;100520.25;4959591;28;96893;-86
2022/01/07 08:40:29;;;;;;;11.13;5.30;;;;;;;0.36;61.20;100519.50;4989489;28;97232;-86
2022/01/07 08:42:55;;;;;;;18.87;6.93;;;;;;;0.33;61.52;100519.47;4957172;28;97919;-85
2022/01/07 08:45:21;;;;;;;17.70;7.27;;;;;;;0.39;61.42;100541.06;4971497;28;101005;-86
2022/01/07 08:47:47;;;;;;;34.17;12.73;;;;;;;0.38;61.40;100529.00;4974617;28;97404;-85
2022/01/07 08:50:12;;;;;;;58.73;23.67;;;;;;;0.42;61.20;100530.75;4966436;28;98285;-87
2022/01/07 08:52:38;;;;;;;38.07;15.03;;;;;;;0.55;61.24;100538.63;4967309;28;100300;-87
2022/01/07 08:55:04;;;;;;;55.50;20.33;;;;;;;0.55;60.90;100529.16;4956256;28;101819;-86
2022/01/07 08:57:29;;;;;;;41.27;15.50;;;;;;;0.56;60.56;100530.91;4955951;28;97113;-85
2022/01/07 08:59:55;;;;;;;35.60;14.77;;;;;;;0.58;61.06;100534.38;4937755;28;97083;-86
2022/01/07 09:02:20;;;;;;;28.73;9.63;;;;;;;0.60;61.54;100539.56;4961806;28;101583;-87
2022/01/07 09:04:46;;;;;;;15.50;6.03;;;;;;;0.59;60.74;100530.94;4981105;28;97408;-86
2022/01/07 09:07:12;;;;;;;31.80;11.93;;;;;;;0.55;60.95;100489.53;4995381;28;97408;-86
2022/01/07 09:09:37;;;;;;;15.10;6.03;;;;;;;0.73;60.30;100517.25;4951452;28;98381;-87
2022/01/07 09:12:07;;;;;;;13.57;6.23;;;;;;;0.73;60.02;100522.44;4945040;28;101379;-85
2022/01/07 09:14:33;;;;;;;16.63;7.07;;;;;;;0.79;60.35;100528.53;4965010;28;101308;-89
2022/01/07 09:16:58;;;;;;;12.03;6.67;;;;;;;0.73;60.25;100500.06;4945576;28;96780;-91
2022/01/07 09:19:25;;;;;;;22.83;8.67;;;;;;;0.79;59.84;100505.28;4956018;28;96854;-84
2022/01/07 09:21:51;;;;;;;51.07;24.30;;;;;;;1.08;59.66;100515.00;4942792;28;98249;-85
2022/01/07 09:24:17;;;;;;;22.43;8.67;;;;;;;1.20;59.34;100511.66;4974537;28;101179;-91
2022/01/07 09:26:43;;;;;;;16.83;8.20;;;;;;;1.20;59.54;100515.09;4974383;28;97341;-88
2022/01/07 09:29:08;;;;;;;18.13;8.87;;;;;;;1.30;59.17;100511.69;4950518;28;99099;-85
2022/01/07 09:31:34;;;;;;;22.03;8.87;;;;;;;1.31;59.79;100495.34;4983202;28;98079;-85
2022/01/07 09:34:00;;;;;;;15.10;6.10;;;;;;;1.51;59.20;100513.56;4975365;28;98403;-86
2022/01/07 09:36:26;;;;;;;16.13;7.43;;;;;;;1.64;58.88;100500.69;4970686;28;96704;-87
2022/01/07 09:38:52;;;;;;;16.13;7.00;;;;;;;1.74;57.87;100502.47;4950114;28;96674;-90
2022/01/07 09:41:18;;;;;;;26.03;8.57;;;;;;;1.67;57.43;100456.72;4968275;28;98456;-91
2022/01/07 09:43:44;;;;;;;32.80;9.90;;;;;;;2.28;56.60;100450.88;4932691;28;101058;-91
2022/01/07 09:46:18;;;;;;;22.53;8.43;;;;;;;3.16;55.30;100491.50;4983586;28;96909;-91
2022/01/07 09:48:44;;;;;;;20.77;8.23;;;;;;;3.53;54.29;100496.63;4950243;28;97388;-85
2022/01/07 09:51:09;;;;;;;20.70;8.30;;;;;;;3.24;54.23;100474.19;4952050;28;101192;-83
2022/01/07 09:53:35;;;;;;;16.63;5.70;;;;;;;2.85;55.45;100481.16;4990023;28;97634;-84
2022/01/07 09:56:03;;;;;;;17.83;7.63;;;;;;;2.56;55.84;100475.97;4955060;28;97426;-88
2022/01/07 09:58:29;;;;;;;19.03;7.60;;;;;;;2.72;55.79;100479.41;4968272;28;96958;-90
2022/01/07 10:01:01;;;;;;;16.67;6.90;;;;;;;3.31;54.81;100470.72;4955527;28;98054;-90
2022/01/07 10:03:41;;;;;;;17.08;9.15;;;;;;;3.37;54.35;100472.44;4972944;28;99867;-90
2022/01/07 10:06:23;;;;;;;13.73;5.47;;;;;;;3.13;54.67;100443.06;4958693;28;96923;-89
2022/01/07 10:09:11;;;;;;;14.13;6.53;;;;;;;3.32;54.42;100453.44;4955650;28;97230;-93
2022/01/07 10:11:39;;;;;;;12.00;5.10;;;;;;;3.69;53.74;100441.19;4982225;28;99438;-90
2022/01/07 10:14:20;;;;;;;12.70;5.63;;;;;;;4.07;52.53;100456.63;4955173;28;98541;-84
2022/01/07 10:16:54;;;;;;;11.67;6.03;;;;;;;3.95;51.98;100437.63;4946925;28;97758;-85
2022/01/07 10:19:36;;;;;;;11.97;5.47;;;;;;;3.98;51.71;100455.78;4967870;28;97269;-85
2022/01/07 10:22:22;;;;;;;13.35;4.70;;;;;;;3.48;52.60;100451.66;4984346;28;97611;-84
2022/01/07 10:24:59;;;;;;;13.90;5.17;;;;;;;2.78;53.89;100424.09;4948600;28;98081;-86
2022/01/07 10:27:37;;;;;;;14.00;5.73;;;;;;;2.91;54.23;100438.81;4952023;28;96878;-83
2022/01/07 10:30:14;;;;;;;9.93;4.60;;;;;;;3.08;54.26;100430.97;4955262;28;97313;-85
2022/01/07 10:32:40;;;;;;;10.73;5.37;;;;;;;3.35;53.84;100443.91;4973092;28;97956;-85
2022/01/07 10:35:12;;;;;;;12.97;4.87;;;;;;;3.57;53.10;100438.63;4961679;28;98153;-85
2022/01/07 10:37:50;;;;;;;11.27;4.90;;;;;;;3.64;52.52;100427.38;4987687;28;97009;-85
2022/01/07 10:40:23;;;;;;;15.43;5.03;;;;;;;3.45;52.47;100426.56;4989519;28;97295;-85
2022/01/07 10:42:50;;;;;;;8.50;4.27;;;;;;;3.16;53.21;100416.28;4981945;28;97960;-84
2022/01/07 10:45:16;;;;;;;11.43;4.67;;;;;;;3.11;53.19;100416.31;4984170;28;96884;-83
2022/01/07 10:47:42;;;;;;;14.23;4.90;;;;;;;3.06;53.68;100423.22;4954649;28;98404;-82
2022/01/07 10:50:23;;;;;;;10.00;4.20;;;;;;;3.04;53.05;100431.88;4952975;28;97179;-83
2022/01/07 10:52:50;;;;;;;11.07;4.30;;;;;;;2.97;53.08;100427.53;4965936;28;98158;-82
2022/01/07 10:55:18;;;;;;;13.00;5.23;;;;;;;2.74;53.86;100423.25;4947424;28;101719;-83
2022/01/07 10:57:46;;;;;;;12.77;4.00;;;;;;;2.73;53.61;100434.47;4966029;28;97176;-83
2022/01/07 11:00:18;;;;;;;11.10;4.93;;;;;;;2.62;54.00;100431.03;4963789;28;97674;-82
2022/01/07 11:02:45;;;;;;;13.93;4.90;;;;;;;2.56;54.56;100431.00;4958483;28;101391;-85
2022/01/07 11:05:11;;;;;;;12.43;5.43;;;;;;;2.48;54.34;100425.84;4950841;28;97981;-81
2022/01/07 11:07:36;;;;;;;12.93;5.53;;;;;;;2.43;54.60;100430.16;4963814;28;98193;-82
2022/01/07 11:10:08;;;;;;;14.90;5.53;;;;;;;2.50;54.58;100424.09;4936652;28;98012;-80
2022/01/07 11:12:35;;;;;;;12.75;5.55;;;;;;;2.39;54.86;100411.16;4958246;28;101314;-82
2022/01/07 11:15:02;;;;;;;13.10;5.90;;;;;;;2.35;55.01;100395.59;4937808;28;101365;-81
2022/01/07 11:17:29;;;;;;;17.40;6.30;;;;;;;2.17;55.58;100371.41;4968547;28;97763;-85
2022/01/07 11:19:57;;;;;;;12.73;5.33;;;;;;;2.35;55.35;100406.81;4961590;28;97253;-91
2022/01/07 11:22:24;;;;;;;11.97;5.40;;;;;;;2.39;54.71;100380.06;4969086;28;99158;-89
2022/01/07 11:25:10;;;;;;;14.97;5.90;;;;;;;2.69;55.63;100412.88;4941174;28;100156;-90
2022/01/07 11:27:57;;;;;;;10.67;4.47;;;;;;;2.75;55.27;100416.34;4971528;28;96761;-90
2022/01/07 11:30:28;;;;;;;14.17;6.47;;;;;;;2.80;54.95;100409.44;4973358;28;98001;-90
2022/01/07 11:32:54;;;;;;;16.07;7.20;;;;;;;2.78;54.81;100393.84;4989457;28;100833;-88